createdAt,value
2019-01-11T00:03:56.362Z,-0.40
2019-01-11T00:09:02.549Z,-0.60
2019-01-11T00:14:08.662Z,-0.60
2019-01-11T00:19:14.834Z,-0.60
2019-01-11T00:24:20.963Z,-0.60
2019-01-11T00:29:27.136Z,-0.60
2019-01-11T00:34:33.249Z,-0.60
2019-01-11T00:39:39.432Z,-0.70
2019-01-11T00:44:45.548Z,-0.70
2019-01-11T00:49:51.738Z,-0.80
2019-01-11T00:54:57.815Z,-0.80
2019-01-11T01:00:04.505Z,-0.90
2019-01-11T01:05:10.939Z,-0.80
2019-01-11T01:10:18.736Z,-0.90
2019-01-11T01:15:24.876Z,-0.90
2019-01-11T01:20:30.996Z,-1.00
2019-01-11T01:25:37.082Z,-0.90
2019-01-11T01:30:43.152Z,-1.00
2019-01-11T01:35:49.296Z,-1.00
2019-01-11T01:40:55.476Z,-0.90
2019-01-11T01:46:01.566Z,-0.80
2019-01-11T01:51:07.665Z,-0.80
2019-01-11T01:56:13.696Z,-0.80
2019-01-11T02:01:19.883Z,-0.70
2019-01-11T02:06:27.047Z,-0.70
2019-01-11T02:11:33.161Z,-0.90
2019-01-11T02:16:39.202Z,-1.00
2019-01-11T02:21:45.409Z,-0.90
2019-01-11T02:26:51.556Z,-1.00
2019-01-11T02:31:57.648Z,-1.00
2019-01-11T02:37:03.684Z,-1.10
2019-01-11T02:42:09.903Z,-1.10
2019-01-11T02:47:15.970Z,-1.10
2019-01-11T02:52:21.866Z,-1.10
2019-01-11T02:57:27.902Z,-1.00
2019-01-11T03:02:33.920Z,-1.20
2019-01-11T03:07:41.001Z,-1.10
2019-01-11T03:12:46.871Z,-1.10
2019-01-11T03:17:52.966Z,-1.10
2019-01-11T03:22:59.072Z,-1.10
2019-01-11T03:28:05.378Z,-1.00
2019-01-11T03:33:11.097Z,-1.10
2019-01-11T03:38:17.221Z,-1.10
2019-01-11T03:43:23.136Z,-1.00
2019-01-11T03:48:29.478Z,-0.90
2019-01-11T03:53:35.637Z,-1.00
2019-01-11T03:58:41.783Z,-1.10
2019-01-11T04:03:47.818Z,-1.10
2019-01-11T04:08:53.961Z,-1.00
2019-01-11T04:14:00.096Z,-1.00
2019-01-11T04:19:11.073Z,-1.10
2019-01-11T04:24:21.718Z,-1.00
2019-01-11T04:29:28.104Z,-1.00
2019-01-11T04:34:34.701Z,-0.90
2019-01-11T04:39:40.876Z,-1.00
2019-01-11T04:44:47.899Z,-1.10
2019-01-11T04:49:54.153Z,-0.90
2019-01-11T04:55:00.277Z,-0.90
2019-01-11T05:00:09.614Z,-1.00
2019-01-11T05:05:15.743Z,-0.80
2019-01-11T05:10:22.024Z,-1.00
2019-01-11T05:15:28.124Z,-1.00
2019-01-11T05:20:34.307Z,-1.00
2019-01-11T05:25:40.460Z,-1.10
2019-01-11T05:30:51.909Z,-1.10
2019-01-11T05:35:58.037Z,-1.20
2019-01-11T05:41:04.217Z,-1.10
2019-01-11T05:46:10.194Z,-1.00
2019-01-11T05:51:16.189Z,-0.90
2019-01-11T05:56:22.244Z,-1.00
2019-01-11T06:01:28.492Z,-1.00
2019-01-11T06:06:52.030Z,-1.10
2019-01-11T06:11:58.220Z,-0.90
2019-01-11T06:17:04.468Z,-0.90
2019-01-11T06:22:10.628Z,-0.90
2019-01-11T06:27:16.811Z,-0.80
2019-01-11T06:32:22.907Z,-0.90
2019-01-11T06:37:29.042Z,-0.90
2019-01-11T06:42:35.145Z,-0.90
2019-01-11T06:47:41.301Z,-0.80
2019-01-11T06:52:47.295Z,-0.80
2019-01-11T06:57:53.388Z,-0.90
2019-01-11T07:02:59.628Z,-0.90
2019-01-11T07:08:05.800Z,-0.80
2019-01-11T07:13:11.920Z,-0.80
2019-01-11T07:18:17.974Z,-0.70
2019-01-11T07:23:24.120Z,-0.80
2019-01-11T07:28:31.317Z,-0.60
2019-01-11T07:33:37.613Z,-0.80
2019-01-11T07:38:43.686Z,-0.70
2019-01-11T07:43:49.771Z,-0.70
2019-01-11T07:48:55.891Z,-0.50
2019-01-11T07:54:02.706Z,-0.40
2019-01-11T07:59:09.051Z,-0.30
2019-01-11T08:04:15.173Z,-0.30
2019-01-11T08:09:21.376Z,-0.10
2019-01-11T08:14:27.550Z,-0.20
2019-01-11T08:19:33.637Z,-0.20
2019-01-11T08:24:41.571Z,0.00
2019-01-11T08:29:47.647Z,-0.10
2019-01-11T08:34:53.708Z,0.10
2019-01-11T08:39:59.900Z,0.30
2019-01-11T08:45:06.548Z,0.30
2019-01-11T08:50:18.257Z,0.30
2019-01-11T08:55:24.234Z,0.30
2019-01-11T09:00:30.328Z,0.30
2019-01-11T09:05:36.396Z,0.40
2019-01-11T09:10:42.543Z,0.40
2019-01-11T09:15:49.852Z,0.40
2019-01-11T09:20:55.918Z,0.60
2019-01-11T09:26:02.992Z,0.60
2019-01-11T09:31:09.090Z,0.50
2019-01-11T09:36:15.413Z,0.50
2019-01-11T09:41:21.433Z,0.60
2019-01-11T09:46:27.640Z,0.60
2019-01-11T09:51:33.699Z,0.40
2019-01-11T09:56:39.769Z,0.40
2019-01-11T10:01:47.537Z,0.50
2019-01-11T10:07:07.644Z,0.60
2019-01-11T10:12:13.680Z,0.60
2019-01-11T10:17:19.743Z,0.80
2019-01-11T10:22:25.834Z,0.90
2019-01-11T10:27:31.981Z,0.80
2019-01-11T10:32:38.174Z,0.90
2019-01-11T10:37:44.238Z,0.80
2019-01-11T10:42:50.744Z,0.80
2019-01-11T10:47:58.695Z,0.90
2019-01-11T10:53:04.940Z,1.00
2019-01-11T10:58:11.117Z,1.20
2019-01-11T11:03:17.196Z,1.20
2019-01-11T11:08:23.237Z,1.30
2019-01-11T11:13:29.417Z,1.00
2019-01-11T11:18:35.608Z,1.10
2019-01-11T11:23:42.075Z,1.00
2019-01-11T11:28:48.265Z,1.10
2019-01-11T11:33:54.352Z,1.20
2019-01-11T11:39:00.323Z,1.40
2019-01-11T11:44:06.438Z,1.60
2019-01-11T11:49:12.686Z,1.60
2019-01-11T11:54:18.826Z,1.60
2019-01-11T11:59:24.936Z,1.70
2019-01-11T12:04:30.974Z,1.60
2019-01-11T12:09:37.088Z,1.40
2019-01-11T12:14:43.147Z,1.20
2019-01-11T12:19:49.132Z,1.20
2019-01-11T12:24:55.237Z,1.20
2019-01-11T12:30:01.376Z,1.20
2019-01-11T12:35:07.568Z,1.40
2019-01-11T12:40:13.703Z,1.30
2019-01-11T12:45:19.788Z,1.30
2019-01-11T12:50:28.070Z,1.40
2019-01-11T12:55:34.095Z,1.70
2019-01-11T13:00:40.167Z,1.80
2019-01-11T13:05:46.340Z,1.80
2019-01-11T13:10:52.509Z,1.80
2019-01-11T13:15:58.633Z,1.80
2019-01-11T13:21:04.997Z,1.60
2019-01-11T13:26:11.168Z,1.50
2019-01-11T13:31:17.052Z,1.40
2019-01-11T13:36:23.812Z,1.40
2019-01-11T13:41:30.020Z,1.30
2019-01-11T13:46:36.100Z,1.30
2019-01-11T13:51:42.237Z,1.30
2019-01-11T13:56:48.409Z,1.30
2019-01-11T14:01:54.417Z,1.30
2019-01-11T14:07:00.391Z,1.30
2019-01-11T14:12:06.442Z,1.30
2019-01-11T14:17:12.636Z,1.30
2019-01-11T14:22:18.749Z,1.30
2019-01-11T14:27:24.784Z,1.30
2019-01-11T14:32:30.856Z,1.20
2019-01-11T14:37:37.015Z,1.20
2019-01-11T14:42:43.200Z,1.20
2019-01-11T14:47:49.288Z,1.10
2019-01-11T14:52:55.356Z,1.10
2019-01-11T14:58:01.517Z,1.10
2019-01-11T15:03:07.694Z,1.10
2019-01-11T15:08:13.825Z,1.00
2019-01-11T15:13:19.857Z,1.00
2019-01-11T15:18:26.120Z,1.10
2019-01-11T15:23:32.307Z,1.20
2019-01-11T15:28:38.393Z,1.20
2019-01-11T15:33:44.495Z,1.20
2019-01-11T15:38:50.631Z,1.10
2019-01-11T15:43:56.756Z,1.20
2019-01-11T15:49:02.792Z,1.20
2019-01-11T15:54:08.850Z,1.20
2019-01-11T15:59:15.049Z,1.20
2019-01-11T16:04:21.224Z,1.20
2019-01-11T16:10:04.112Z,1.20
2019-01-11T16:15:47.065Z,1.20
2019-01-11T16:20:54.356Z,1.30
2019-01-11T16:26:01.396Z,1.30
2019-01-11T16:31:07.696Z,1.20
2019-01-11T16:36:13.787Z,1.30
2019-01-11T16:41:19.837Z,1.30
2019-01-11T16:46:26.065Z,1.30
2019-01-11T16:51:32.179Z,1.40
2019-01-11T16:56:38.253Z,1.40
2019-01-11T17:01:44.315Z,1.40
2019-01-11T17:06:50.433Z,1.50
2019-01-11T17:11:56.680Z,1.50
2019-01-11T17:17:02.852Z,1.50
2019-01-11T17:22:08.942Z,1.50
2019-01-11T17:27:15.027Z,1.50
2019-01-11T17:32:21.091Z,1.50
2019-01-11T17:37:27.365Z,1.50
2019-01-11T17:42:33.827Z,1.50
2019-01-11T17:47:41.429Z,1.60
2019-01-11T17:52:47.606Z,1.60
2019-01-11T17:57:53.824Z,1.60
2019-01-11T18:02:59.959Z,1.60
2019-01-11T18:08:07.953Z,1.60
2019-01-11T18:13:19.474Z,1.60
2019-01-11T18:18:26.307Z,1.60
2019-01-11T18:23:32.299Z,1.70
2019-01-11T18:28:38.415Z,1.80
2019-01-11T18:33:44.550Z,1.70
2019-01-11T18:38:50.693Z,1.70
2019-01-11T18:43:56.703Z,1.80
2019-01-11T18:49:02.888Z,1.70
2019-01-11T18:54:10.379Z,1.70
2019-01-11T18:59:16.421Z,1.80
2019-01-11T19:04:22.608Z,1.80
2019-01-11T19:09:28.770Z,1.70
2019-01-11T19:14:34.868Z,1.80
2019-01-11T19:19:40.839Z,1.90
2019-01-11T19:24:46.946Z,1.90
2019-01-11T19:29:52.978Z,1.90
2019-01-11T19:34:59.135Z,1.90
2019-01-11T19:40:06.997Z,1.90
2019-01-11T19:45:13.473Z,1.90
2019-01-11T19:50:21.375Z,1.80
2019-01-11T19:55:27.564Z,2.00
2019-01-11T20:00:34.231Z,2.00
2019-01-11T20:05:40.570Z,1.90
2019-01-11T20:10:46.798Z,1.90
2019-01-11T20:15:52.892Z,1.90
2019-01-11T20:20:59.131Z,1.90
2019-01-11T20:26:05.765Z,1.90
2019-01-11T20:31:11.812Z,2.00
2019-01-11T20:36:17.980Z,2.00
2019-01-11T20:41:24.259Z,2.00
2019-01-11T20:46:30.385Z,2.10
2019-01-11T20:51:36.430Z,2.00
2019-01-11T20:56:42.596Z,2.10
2019-01-11T21:01:48.741Z,2.10
2019-01-11T21:06:54.857Z,2.10
2019-01-11T21:12:01.024Z,2.10
2019-01-11T21:17:07.396Z,2.20
2019-01-11T21:22:13.694Z,2.30
2019-01-11T21:27:19.934Z,2.30
2019-01-11T21:32:26.081Z,2.20
2019-01-11T21:37:32.106Z,2.30
2019-01-11T21:42:38.082Z,2.30
2019-01-11T21:47:44.249Z,2.30
2019-01-11T21:52:50.520Z,2.40
2019-01-11T21:57:56.601Z,2.40
2019-01-11T22:03:02.828Z,2.40
2019-01-11T22:08:08.977Z,2.30
2019-01-11T22:13:15.129Z,2.40
2019-01-11T22:18:21.206Z,2.40
2019-01-11T22:23:27.329Z,2.40
2019-01-11T22:28:33.473Z,2.40
2019-01-11T22:33:39.642Z,2.40
2019-01-11T22:38:45.733Z,2.30
2019-01-11T22:43:51.773Z,2.30
2019-01-11T22:48:57.881Z,2.20
2019-01-11T22:54:10.181Z,2.20
2019-01-11T22:59:11.760Z,2.30
2019-01-11T23:04:18.857Z,2.40
2019-01-11T23:09:27.716Z,2.40
2019-01-11T23:14:33.852Z,2.40
2019-01-11T23:19:39.970Z,2.30
2019-01-11T23:24:46.089Z,2.40
2019-01-11T23:29:52.233Z,2.50
2019-01-11T23:34:58.272Z,2.40
2019-01-11T23:40:05.195Z,2.40
2019-01-11T23:45:11.776Z,2.40
2019-01-11T23:50:18.642Z,2.50
2019-01-11T23:55:24.689Z,2.60
